Latest Weather Observations for Dunalley

IDT60901

Issued at 10:21 pm EST Thursday 2 July 2020 (issued every 10 minutes, with the page automatically refreshed every 10 minutes)

About weather observations | Map of Hobart area stations | Latest observations for Hobart area | Other Formats
Station Details ID: 094254 Name: DUNALLEY (STROUD POINT) Lat: -42.90 Lon: 147.79 Height: 12.43 m
Data from the previous 72 hours. | See also: Recent months at Dunalley
Date/Time
EST
Temp
°C
App
Temp
°C
Dew
Point
°C
Rel
Hum
%
Delta-T
°C
Wind Press
QNH
hPa
Press
MSL
hPa
Rain since
9am
mm
Dir  Spd
km/h
Gust
km/h
Spd
kts
Gust
kts
02/10:00pm 9.0 4.2 2.8 65 2.6 NNW 17 30 9 16 1005.9 1005.9 0.2
02/09:30pm 9.3 5.4 3.3 66 2.6 NNW 13 19 7 10 1005.7 1005.7 0.2
02/09:00pm 9.7 5.4 3.4 65 2.7 NNW 15 26 8 14 1005.4 1005.4 0.2
02/08:30pm 9.7 4.1 3.2 64 2.8 NW 22 33 12 18 1004.9 1004.9 0.2
02/08:00pm 9.8 4.8 3.5 65 2.8 NW 19 28 10 15 1004.5 1004.5 0.2
02/07:30pm 10.1 5.4 3.2 62 3.0 NW 17 32 9 17 1004.1 1004.1 0.2
02/07:00pm 10.6 4.6 3.6 62 3.1 NW 24 35 13 19 1003.7 1003.7 0.2
02/06:30pm 10.6 4.6 3.2 60 3.2 NW 24 37 13 20 1003.4 1003.4 0.2
02/06:00pm 11.0 3.9 3.3 59 3.4 WNW 30 41 16 22 1002.9 1002.9 0.2
02/05:30pm 11.2 5.2 3.3 58 3.5 WNW 24 33 13 18 1002.6 1002.6 0.2
02/05:00pm 11.3 6.0 3.1 57 3.6 WNW 20 37 11 20 1002.2 1002.2 0.2
02/04:30pm 10.9 8.4 3.5 60 3.3 WNW 6 11 3 6 1001.8 1001.8 0.2
02/04:00pm 12.4 5.6 3.1 53 4.1 NW 28 41 15 22 1001.5 1001.5 0.2
02/03:30pm 12.2 7.1 3.2 54 4.0 WNW 19 28 10 15 1001.5 1001.5 0.2
02/03:00pm 12.7 7.5 3.4 53 4.2 WNW 20 35 11 19 1001.3 1001.3 0.2
02/02:30pm 12.8 8.7 4.5 57 3.8 WNW 15 24 8 13 1000.9 1000.9 0.2
02/02:00pm 11.8 6.0 4.5 61 3.3 WNW 24 32 13 17 1000.8 1000.8 0.2
02/01:30pm 12.8 6.7 4.8 58 3.7 WNW 26 43 14 23 1000.4 1000.4 0.2
02/01:00pm 12.1 5.6 4.8 61 3.4 WNW 28 37 15 20 1000.2 1000.2 0.2
02/12:30pm 12.7 6.6 6.5 66 3.0 WNW 28 41 15 22 999.9 999.9 0.2
02/12:00pm 12.0 4.0 5.6 65 3.0 WNW 37 48 20 26 999.7 999.7 0.2
02/11:30am 11.2 4.6 5.9 70 2.5 NW 30 44 16 24 999.4 999.4 0.2
02/11:00am 10.4 4.2 6.0 74 2.1 NW 28 37 15 20 999.0 999.0 0.2
02/10:30am 10.0 3.8 6.3 78 1.7 WNW 28 39 15 21 999.0 999.0 0.2
02/10:00am 9.6 5.3 6.9 83 1.3 WNW 19 28 10 15 999.0 999.0 0.2
02/09:30am 9.5 5.9 6.9 84 1.2 WNW 15 22 8 12 998.4 998.4 0.2
02/09:00am 9.4 5.1 6.8 84 1.2 WNW 19 24 10 13 998.9 998.9 1.6
02/08:30am 9.9 5.6 7.0 82 1.4 WNW 19 28 10 15 998.6 998.6 1.6
02/08:00am 10.2 5.2 6.5 78 1.7 NW 22 33 12 18 998.8 998.8 1.0
02/07:30am 11.9 8.4 7.2 73 2.3 NNE 15 20 8 11 998.4 998.4 0.0
02/07:00am 11.8 6.7 7.5 75 2.1 NNE 24 32 13 17 998.0 998.0 0.0
02/06:30am 11.5 7.5 6.8 73 2.2 NE 17 20 9 11 998.4 998.4 0.0
02/06:00am 11.8 7.3 6.9 72 2.4 NE 20 30 11 16 998.4 998.4 0.0
02/05:30am 12.3 5.6 7.2 71 2.5 ENE 32 43 17 23 998.4 998.4 0.0
02/05:00am 12.4 5.3 6.2 66 3.0 NE 33 44 18 24 998.7 998.7 0.0
02/04:30am 12.5 6.7 6.1 65 3.0 NE 26 37 14 20 999.2 999.2 0.0
02/04:00am 13.6 6.0 5.7 59 3.8 NNE 35 52 19 28 999.5 999.5 0.0
02/03:40am 13.7 5.3 5.6 58 3.8 NNE 39 57 21 31 1000.1 1000.1 0.0
02/03:30am 13.5 6.3 5.7 59 3.7 NNE 33 50 18 27 1000.1 1000.1 0.0
02/03:10am 13.8 7.6 6.2 60 3.6 NNE 28 54 15 29 1000.7 1000.7 0.0
02/03:00am 13.4 8.4 6.3 62 3.4 N 22 35 12 19 1001.2 1001.2 0.0
02/02:30am 13.2 7.9 6.8 65 3.1 NNW 24 32 13 17 1001.8 1001.8 0.0
02/02:00am 11.3 5.8 7.6 78 1.8 NNE 26 32 14 17 1001.8 1001.8 0.0
02/01:30am 10.8 5.2 7.3 79 1.7 NNE 26 32 14 17 1002.0 1002.0 0.0
02/01:00am 10.4 4.3 6.7 78 1.7 NE 28 32 15 17 1002.4 1002.4 0.0
02/12:30am 10.4 5.0 6.4 76 1.9 NE 24 28 13 15 1002.8 1002.8 0.0
02/12:00am 10.4 6.1 6.9 79 1.7 NE 19 24 10 13 1003.9 1003.9 0.0
 
Date/Time
EST
Temp
°C
App
Temp
°C
Dew
Point
°C
Rel
Hum
%
Delta-T
°C
Wind Press
QNH
hPa
Press
MSL
hPa
Rain since
9am
mm
Dir  Spd
km/h
Gust
km/h
Spd
kts
Gust
kts
01/11:30pm 9.9 5.3 6.6 80 1.5 NE 20 24 11 13 1004.5 1004.5 0.0
01/11:00pm 9.1 5.3 5.8 80 1.5 NNE 15 19 8 10 1005.0 1005.0 0.0
01/10:30pm 9.2 5.7 5.6 78 1.6 NNE 13 15 7 8 1005.6 1005.6 0.0
01/10:00pm 10.8 5.9 6.7 76 1.9 NNE 22 24 12 13 1005.9 1005.9 0.0
01/09:30pm 10.9 5.2 6.6 75 2.0 NNE 26 30 14 16 1006.0 1006.0 0.0
01/09:00pm 11.6 4.8 6.9 73 2.2 NNE 32 39 17 21 1006.5 1006.5 0.0
01/08:30pm 11.7 5.6 6.8 72 2.3 NNE 28 37 15 20 1006.8 1006.8 0.0
01/08:00pm 11.7 6.8 6.8 72 2.3 NNE 22 32 12 17 1007.4 1007.4 0.0
01/07:30pm 11.8 6.4 7.9 77 1.9 NNE 26 39 14 21 1007.5 1007.5 0.0
01/07:00pm 10.0 5.7 6.9 81 1.5 NE 19 20 10 11 1008.0 1008.0 0.0
01/06:30pm 10.1 5.5 6.3 77 1.8 NE 20 24 11 13 1008.1 1008.1 0.0
01/06:00pm 11.2 6.7 6.9 75 2.0 NNE 20 24 11 13 1008.4 1008.4 0.0
01/05:30pm 11.2 6.6 6.7 74 2.1 NNE 20 24 11 13 1008.7 1008.7 0.0
01/05:00pm 10.8 6.3 6.2 73 2.2 NNE 19 20 10 11 1008.9 1008.9 0.0
01/04:30pm 11.5 7.5 6.8 73 2.2 NE 17 20 9 11 1009.2 1009.2 0.0
01/04:00pm 11.8 7.2 6.7 71 2.4 NE 20 24 11 13 1009.3 1009.3 0.0
01/03:30pm 12.3 8.0 7.2 71 2.5 NE 19 24 10 13 1009.5 1009.5 0.0
01/03:00pm 12.9 8.4 6.9 67 2.9 NE 20 26 11 14 1009.8 1009.8 0.0
01/02:30pm 13.9 8.9 6.3 60 3.6 NNE 22 35 12 19 1010.0 1010.0 0.0
01/02:00pm 13.9 8.9 6.5 61 3.6 N 22 33 12 18 1010.3 1010.4 0.0
01/01:30pm 13.8 8.1 6.7 62 3.4 N 26 35 14 19 1010.4 1010.5 0.0
01/01:00pm 14.1 10.3 7.4 64 3.3 N 17 30 9 16 1011.0 1011.1 0.0
01/12:30pm 14.0 10.9 7.1 63 3.4 N 13 24 7 13 1011.6 1011.7 0.0
01/12:00pm 12.9 9.3 6.9 67 2.9 NE 15 28 8 15 1012.1 1012.2 0.0
01/11:30am 12.2 7.7 7.1 71 2.5 NE 20 26 11 14 1012.5 1012.6 0.0
01/11:00am 12.0 7.8 7.3 73 2.3 NE 19 22 10 12 1013.0 1013.1 0.0
01/10:30am 11.4 7.1 7.1 75 2.1 NE 19 24 10 13 1013.5 1013.6 0.0
01/10:00am 10.8 6.6 7.3 79 1.7 NE 19 28 10 15 1013.8 1013.9 0.0
01/09:30am 10.3 5.8 7.0 80 1.6 NE 20 26 11 14 1014.0 1014.1 0.0
01/09:00am 9.8 5.9 7.1 83 1.3 NE 17 22 9 12 1014.0 1014.1 0.0
01/08:30am 9.0 5.4 6.6 85 1.1 NE 15 19 8 10 1014.0 1014.1 0.0
01/08:00am 8.5 4.8 6.5 87 0.9 NE 15 19 8 10 1014.3 1014.4 0.0
01/07:30am 7.9 3.7 5.9 87 0.9 ENE 17 20 9 11 1014.2 1014.3 0.0
01/07:00am 7.4 3.5 5.2 86 1.0 NE 15 17 8 9 1014.1 1014.2 0.0
01/06:30am 8.1 4.3 5.9 86 1.0 NE 15 19 8 10 1013.9 1014.0 0.0
01/06:00am 7.2 4.0 4.9 85 1.0 NNE 11 15 6 8 1014.0 1014.1 0.0
01/05:30am 8.1 5.0 5.6 84 1.1 NNE 11 13 6 7 1014.1 1014.2 0.0
01/05:00am 7.0 3.3 4.5 84 1.1 NNE 13 17 7 9 1014.0 1014.1 0.0
01/04:30am 7.8 3.8 5.1 83 1.2 NNE 15 17 8 9 1014.2 1014.3 0.0
01/04:00am 7.2 3.9 4.3 82 1.3 NE 11 15 6 8 1014.3 1014.4 0.0
01/03:30am 7.4 4.8 4.0 79 1.5 NNE 7 9 4 5 1014.5 1014.6 0.0
01/03:00am 8.5 5.7 5.1 79 1.5 NNE 9 13 5 7 1014.7 1014.8 0.0
01/02:30am 8.5 5.6 4.9 78 1.6 NNE 9 11 5 6 1014.9 1015.0 0.0
01/02:00am 8.7 6.3 5.1 78 1.6 NNE 7 9 4 5 1015.0 1015.1 0.0
01/01:30am 8.6 5.8 5.0 78 1.6 NNE 9 9 5 5 1014.9 1015.0 0.0
01/01:00am 8.4 5.1 4.8 78 1.6 NNE 11 13 6 7 1015.0 1015.1 0.0
01/12:30am 9.0 5.8 5.0 76 1.8 NNE 11 13 6 7 1015.2 1015.3 0.0
01/12:00am 9.5 5.9 5.1 74 2.0 NNE 13 17 7 9 1015.4 1015.5 0.0
 
Date/Time
EST
Temp
°C
App
Temp
°C
Dew
Point
°C
Rel
Hum
%
Delta-T
°C
Wind Press
QNH
hPa
Press
MSL
hPa
Rain since
9am
mm
Dir  Spd
km/h
Gust
km/h
Spd
kts
Gust
kts
30/11:30pm 10.9 6.8 6.1 72 2.2 NNE 17 22 9 12 1015.6 1015.7 0.0
30/11:00pm 10.9 7.0 7.2 78 1.8 NNE 17 20 9 11 1015.7 1015.8 0.0
30/10:30pm 9.9 6.0 7.2 83 1.3 NE 17 20 9 11 1015.7 1015.8 0.0
30/10:00pm 9.8 5.9 7.2 84 1.2 NE 17 22 9 12 1015.6 1015.7 0.0
30/09:30pm 10.0 6.5 7.4 84 1.2 NE 15 19 8 10 1015.6 1015.7 0.0
30/09:00pm 10.0 5.2 7.4 84 1.2 NE 22 28 12 15 1015.4 1015.5 0.0
30/08:30pm 9.1 8.0 6.9 86 1.0 NNE 2 6 1 3 1015.8 1015.9 0.0
30/08:00pm 9.3 7.5 7.1 86 1.0 NNE 6 9 3 5 1015.9 1016.0 0.0
30/07:30pm 9.1 7.2 6.7 85 1.1 NNE 6 7 3 4 1015.9 1016.0 0.0
30/07:00pm 8.7 6.7 6.3 85 1.1 NNE 6 7 3 4 1016.0 1016.1 0.0
30/06:30pm 9.1 7.0 6.5 84 1.2 NNE 7 9 4 5 1016.1 1016.2 0.0
30/06:00pm 8.1 5.4 5.6 84 1.1 NNE 9 11 5 6 1015.7 1015.8 0.0
30/05:30pm 8.3 5.9 5.4 82 1.3 N 7 11 4 6 1015.7 1015.8 0.0
30/05:00pm 9.1 6.5 6.0 81 1.4 NNE 9 11 5 6 1015.8 1015.9 0.0
30/04:30pm 9.4 6.7 5.6 77 1.7 NNE 9 9 5 5 1016.0 1016.1 0.0
30/04:00pm 10.5 7.1 6.1 74 2.0 NNE 13 17 7 9 1016.2 1016.3 0.0
30/03:30pm 11.5 7.5 6.6 72 2.3 NNE 17 19 9 10 1016.0 1016.1 0.0
30/03:00pm 11.3 7.7 6.8 74 2.1 NE 15 20 8 11 1016.3 1016.4 0.0
30/02:30pm 10.7 7.1 6.6 76 1.9 NE 15 20 8 11 1016.5 1016.6 0.0
30/02:00pm 11.0 6.0 6.4 73 2.2 NE 22 28 12 15 1016.7 1016.8 0.0
30/01:30pm 11.8 7.2 6.5 70 2.5 NE 20 26 11 14 1017.3 1017.4 0.0
30/01:00pm 12.1 8.1 6.6 69 2.6 ENE 17 22 9 12 1017.8 1017.9 0.0
30/12:30pm 12.1 8.8 6.4 68 2.7 NNE 13 20 7 11 1018.4 1018.5 0.0
30/12:00pm 11.4 7.8 6.7 73 2.2 NE 15 20 8 11 1018.9 1019.0 0.0
30/11:30am 11.0 7.1 7.1 77 1.9 NE 17 20 9 11 1019.5 1019.6 0.0
30/11:00am 10.1 6.6 7.2 82 1.4 NE 15 20 8 11 1020.0 1020.1 0.0
30/10:30am 9.5 6.7 6.9 84 1.2 ENE 11 17 6 9 1020.3 1020.4 0.0
30/10:00am 9.1 6.6 6.7 85 1.1 ENE 9 15 5 8 1020.6 1020.7 0.0
30/09:30am 9.4 8.1 7.7 89 0.8 ENE 4 6 2 3 1020.8 1020.9 0.0
30/09:00am 8.0 5.8 6.3 89 0.8 ENE 7 9 4 5 1021.0 1021.1 0.4
30/08:30am 7.7 5.5 6.3 91 0.6 NE 7 17 4 9 1021.5 1021.6 0.4
30/08:00am 6.3 4.0 4.8 90 0.6 E 6 15 3 8 1021.7 1021.8 0.4
30/07:30am 7.1 5.4 6.0 93 0.5 ENE 4 15 2 8 1021.7 1021.8 0.2
30/07:00am 5.8 3.3 4.8 93 0.4 E 7 11 4 6 1021.7 1021.8 0.2
30/06:30am 6.8 4.2 5.9 94 0.4 NE 9 11 5 6 1021.7 1021.8 0.2
30/06:00am 5.8 3.9 4.9 94 0.4 NNE 4 7 2 4 1021.9 1022.0 0.2
30/05:30am 5.2 2.8 4.3 94 0.4 NNE 6 6 3 3 1022.0 1022.1 0.2
30/05:00am 5.6 4.0 4.7 94 0.4 NNE 2 6 1 3 1022.2 1022.3 0.2
30/04:30am 5.3 3.3 4.4 94 0.4 NNE 4 6 2 3 1022.4 1022.5 0.2
30/04:00am 5.8 4.3 4.9 94 0.4 NNE 2 4 1 2 1022.7 1022.8 0.2
30/03:30am 4.8 2.7 3.9 94 0.4 NNE 4 6 2 3 1022.8 1022.9 0.2
30/03:00am 5.4 3.4 4.5 94 0.4 NNE 4 6 2 3 1023.0 1023.1 0.2
30/02:30am 5.4 3.4 4.5 94 0.4 NNE 4 7 2 4 1023.3 1023.4 0.2
30/02:00am 5.6 4.0 4.7 94 0.4 NNE 2 4 1 2 1023.6 1023.7 0.2
30/01:30am 5.3 2.9 4.3 93 0.4 NNE 6 7 3 4 1023.7 1023.8 0.2
30/01:00am 6.0 3.8 5.1 94 0.4 NNE 6 9 3 5 1023.9 1024.0 0.2
30/12:30am 4.8 2.1 3.8 93 0.4 NNE 7 7 4 4 1024.1 1024.2 0.0
30/12:00am 5.8 3.3 4.8 93 0.4 NNE 7 7 4 4 1024.5 1024.6 0.0
 
Date/Time
EST
Temp
°C
App
Temp
°C
Dew
Point
°C
Rel
Hum
%
Delta-T
°C
Wind Press
QNH
hPa
Press
MSL
hPa
Rain since
9am
mm
Dir  Spd
km/h
Gust
km/h
Spd
kts
Gust
kts
29/11:30pm 6.1 4.2 4.9 92 0.5 NNE 4 6 2 3 1024.9 1025.0 0.0
29/11:00pm 6.3 4.1 5.3 93 0.4 NNE 6 7 3 4 1024.9 1025.0 0.0
29/10:30pm 5.8 3.4 4.4 91 0.6 NNE 6 7 3 4 1025.0 1025.1 0.0

Latest Capital City Observations: Canberra | Sydney | Melbourne | Brisbane | Adelaide | Perth | Hobart | Darwin

Other formats

Comma delimited format used in spreadsheet applications
http://www.bom.gov.au/fwo/IDT60901/IDT60901.94951.axf

JavaScript Object Notation format (JSON) in row-major order
http://www.bom.gov.au/fwo/IDT60901/IDT60901.94951.json

Data quality

Most of these data are generated automatically and are frequently updated. Quality checks on data are not normally performed. It is possible for incorrect values to appear. Refer to information at About Latest Weather Observations and please check the disclaimer before using these data.